createdAt,value
2022-10-30T00:01:20.729Z,12.25
2022-10-30T00:03:48.085Z,12.19
2022-10-30T00:08:43.556Z,12.25
2022-10-30T00:11:13.451Z,12.13
2022-10-30T00:13:43.105Z,12.25
2022-10-30T00:16:10.851Z,12.31
2022-10-30T00:18:40.434Z,12.06
2022-10-30T00:21:14.838Z,12.25
2022-10-30T00:23:50.989Z,12.31
2022-10-30T00:26:20.575Z,12.31
2022-10-30T00:28:55.963Z,12.19
2022-10-30T00:31:25.560Z,12.25
2022-10-30T00:33:55.059Z,12.19
2022-10-30T00:36:23.622Z,12.25
2022-10-30T00:38:51.167Z,12.25
2022-10-30T00:41:25.749Z,12.13
2022-10-30T00:43:54.899Z,12.00
2022-10-30T00:46:34.742Z,12.19
2022-10-30T00:49:14.323Z,12.13
2022-10-30T00:51:50.316Z,12.19
2022-10-30T00:54:19.615Z,12.25
2022-10-30T00:56:48.951Z,12.13
2022-10-30T00:59:28.776Z,12.13
2022-10-30T01:01:56.765Z,12.06
2022-10-30T01:04:29.014Z,12.06
2022-10-30T01:06:59.813Z,12.06
2022-10-30T01:09:27.204Z,12.13
2022-10-30T01:11:58.300Z,12.06
2022-10-30T01:14:26.008Z,11.88
2022-10-30T01:17:35.647Z,11.81
2022-10-30T01:20:28.269Z,12.06
2022-10-30T01:23:24.877Z,11.88
2022-10-30T01:26:15.229Z,11.94
2022-10-30T01:29:07.162Z,12.06
2022-10-30T01:31:58.874Z,11.94
2022-10-30T01:35:16.918Z,11.88
2022-10-30T01:38:08.035Z,12.06
2022-10-30T01:40:36.046Z,11.94
2022-10-30T01:46:13.666Z,12.00
2022-10-30T01:49:09.537Z,12.06
2022-10-30T01:52:03.695Z,12.00
2022-10-30T01:54:42.985Z,11.88
2022-10-30T01:57:53.374Z,11.81
2022-10-30T02:00:21.373Z,11.75
2022-10-30T02:02:51.092Z,11.94
2022-10-30T02:05:44.738Z,12.06
2022-10-30T02:08:12.319Z,12.06
2022-10-30T02:10:45.028Z,12.06
2022-10-30T02:13:13.038Z,12.00
2022-10-30T02:15:42.266Z,12.19
2022-10-30T02:18:09.758Z,11.94
2022-10-30T02:20:38.596Z,12.00
2022-10-30T02:23:07.678Z,12.00
2022-10-30T02:25:36.646Z,11.75
2022-10-30T02:28:04.205Z,11.94
2022-10-30T02:30:31.911Z,11.94
2022-10-30T02:33:00.319Z,11.88
2022-10-30T02:35:28.532Z,11.81
2022-10-30T02:37:56.643Z,12.00
2022-10-30T02:40:24.923Z,11.81
2022-10-30T02:42:55.318Z,11.69
2022-10-30T02:45:23.063Z,11.56
2022-10-30T02:47:50.559Z,11.69
2022-10-30T02:50:18.151Z,11.69
2022-10-30T02:52:47.442Z,11.75
2022-10-30T02:55:14.913Z,11.63
2022-10-30T02:57:45.463Z,11.69
2022-10-30T03:00:13.662Z,11.69
2022-10-30T03:02:41.198Z,11.75
2022-10-30T03:05:09.108Z,11.75
2022-10-30T03:07:36.654Z,11.75
2022-10-30T03:10:05.270Z,11.75
2022-10-30T03:12:33.955Z,11.69
2022-10-30T03:15:01.426Z,11.63
2022-10-30T03:17:29.155Z,11.63
2022-10-30T03:19:56.576Z,11.56
2022-10-30T03:22:24.034Z,11.56
2022-10-30T03:24:51.985Z,11.56
2022-10-30T03:27:19.471Z,11.50
2022-10-30T03:29:47.605Z,11.50
2022-10-30T03:32:16.653Z,11.56
2022-10-30T03:34:45.400Z,11.31
2022-10-30T03:37:12.839Z,11.50
2022-10-30T03:39:40.999Z,11.44
2022-10-30T03:42:08.391Z,11.38
2022-10-30T03:44:35.847Z,11.56
2022-10-30T03:47:03.547Z,11.44
2022-10-30T03:49:31.475Z,11.44
2022-10-30T03:51:59.038Z,11.56
2022-10-30T03:54:29.839Z,11.50
2022-10-30T03:56:57.770Z,11.19
2022-10-30T03:59:25.242Z,11.19
2022-10-30T04:04:43.930Z,11.25
2022-10-30T04:07:11.325Z,11.19
2022-10-30T04:09:39.085Z,11.31
2022-10-30T04:12:07.065Z,11.50
2022-10-30T04:14:34.570Z,11.44
2022-10-30T04:17:02.074Z,11.19
2022-10-30T04:19:31.991Z,11.44
2022-10-30T04:22:00.091Z,11.25
2022-10-30T04:24:28.170Z,11.31
2022-10-30T04:26:56.068Z,11.38
2022-10-30T04:29:26.151Z,11.25
2022-10-30T04:31:53.630Z,11.50
2022-10-30T04:34:30.630Z,11.44
2022-10-30T04:36:58.086Z,11.38
2022-10-30T04:39:25.698Z,11.44
2022-10-30T04:41:53.207Z,11.25
2022-10-30T04:44:20.810Z,11.44
2022-10-30T04:46:48.785Z,11.50
2022-10-30T04:49:19.538Z,11.31
2022-10-30T04:51:48.091Z,11.38
2022-10-30T04:54:15.487Z,11.31
2022-10-30T04:56:42.950Z,11.31
2022-10-30T04:59:10.583Z,11.25
2022-10-30T05:01:41.196Z,11.31
2022-10-30T05:04:18.131Z,11.38
2022-10-30T05:06:46.007Z,11.44
2022-10-30T05:09:13.629Z,11.50
2022-10-30T05:11:44.359Z,11.44
2022-10-30T05:14:12.856Z,11.31
2022-10-30T05:19:23.079Z,11.31
2022-10-30T05:21:50.815Z,11.38
2022-10-30T05:24:20.361Z,11.25
2022-10-30T05:26:52.034Z,11.19
2022-10-30T05:29:19.481Z,11.38
2022-10-30T05:31:46.916Z,11.31
2022-10-30T05:34:14.393Z,11.38
2022-10-30T05:36:42.879Z,11.31
2022-10-30T05:39:10.300Z,11.44
2022-10-30T05:41:37.796Z,11.38
2022-10-30T05:44:05.428Z,11.44
2022-10-30T05:46:35.538Z,11.38
2022-10-30T05:49:05.969Z,11.44
2022-10-30T05:51:37.962Z,11.50
2022-10-30T05:54:08.235Z,11.31
2022-10-30T05:56:35.789Z,11.44
2022-10-30T05:59:05.261Z,11.25
2022-10-30T06:01:32.724Z,11.25
2022-10-30T06:04:00.221Z,11.19
2022-10-30T06:06:27.701Z,11.31
2022-10-30T06:08:55.071Z,11.31
2022-10-30T06:11:22.494Z,11.19
2022-10-30T06:13:49.937Z,11.31
2022-10-30T06:16:17.494Z,11.19
2022-10-30T06:18:45.036Z,11.25
2022-10-30T06:21:13.375Z,11.19
2022-10-30T06:23:40.744Z,11.25
2022-10-30T06:26:08.164Z,11.31
2022-10-30T06:28:35.593Z,11.38
2022-10-30T06:31:03.078Z,11.31
2022-10-30T06:33:30.920Z,11.25
2022-10-30T06:35:58.434Z,11.25
2022-10-30T06:38:25.875Z,11.25
2022-10-30T06:40:53.277Z,11.38
2022-10-30T06:43:21.137Z,11.25
2022-10-30T06:45:48.559Z,11.38
2022-10-30T06:48:16.272Z,11.19
2022-10-30T06:50:46.755Z,11.25
2022-10-30T06:53:14.164Z,11.19
2022-10-30T06:55:41.609Z,11.13
2022-10-30T06:58:09.090Z,11.25
2022-10-30T07:00:36.638Z,11.19
2022-10-30T07:03:04.764Z,11.06
2022-10-30T07:05:32.169Z,11.25
2022-10-30T07:08:00.322Z,11.31
2022-10-30T07:10:27.926Z,11.31
2022-10-30T07:12:57.201Z,11.38
2022-10-30T07:15:25.739Z,11.25
2022-10-30T07:18:04.139Z,11.38
2022-10-30T07:20:35.357Z,11.31
2022-10-30T07:23:03.560Z,11.19
2022-10-30T07:25:31.833Z,11.31
2022-10-30T07:28:01.660Z,11.31
2022-10-30T07:30:32.347Z,11.31
2022-10-30T07:33:03.079Z,11.38
2022-10-30T07:35:32.449Z,11.19
2022-10-30T07:38:14.293Z,11.38
2022-10-30T07:40:41.810Z,11.31
2022-10-30T07:43:13.526Z,11.31
2022-10-30T07:45:41.034Z,11.31
2022-10-30T07:48:08.722Z,11.19
2022-10-30T07:50:36.476Z,11.38
2022-10-30T07:53:04.353Z,11.63
2022-10-30T07:55:31.807Z,11.44
2022-10-30T07:57:59.703Z,11.56
2022-10-30T08:00:27.641Z,11.56
2022-10-30T08:02:59.180Z,11.56
2022-10-30T08:05:29.940Z,11.38
2022-10-30T08:07:59.110Z,11.44
2022-10-30T08:10:33.496Z,11.44
2022-10-30T08:13:01.417Z,11.50
2022-10-30T08:15:33.278Z,11.50
2022-10-30T08:18:01.014Z,11.56
2022-10-30T08:20:32.068Z,11.75
2022-10-30T08:23:01.422Z,11.63
2022-10-30T08:25:31.225Z,11.69
2022-10-30T08:28:08.532Z,11.88
2022-10-30T08:30:38.379Z,11.81
2022-10-30T08:33:18.949Z,11.81
2022-10-30T08:35:55.279Z,11.94
2022-10-30T08:38:32.392Z,11.81
2022-10-30T08:41:03.504Z,11.75
2022-10-30T08:43:34.595Z,11.69
2022-10-30T08:46:05.733Z,11.69
2022-10-30T08:48:39.548Z,11.75
2022-10-30T08:51:11.167Z,11.63
2022-10-30T08:53:41.043Z,11.69
2022-10-30T08:56:12.279Z,11.63
2022-10-30T08:58:40.334Z,11.75
2022-10-30T09:01:10.284Z,11.81
2022-10-30T09:03:39.134Z,11.88
2022-10-30T09:06:08.140Z,11.75
2022-10-30T09:08:37.115Z,11.88
2022-10-30T09:11:06.829Z,11.81
2022-10-30T09:13:36.998Z,11.88
2022-10-30T09:16:04.925Z,12.00
2022-10-30T09:18:32.874Z,11.81
2022-10-30T09:21:04.553Z,12.19
2022-10-30T09:23:33.257Z,11.88
2022-10-30T09:30:21.963Z,11.88
2022-10-30T10:15:31.913Z,12.31
2022-10-30T10:18:04.633Z,12.44
2022-10-30T10:20:44.916Z,12.44
2022-10-30T10:23:25.178Z,12.38
2022-10-30T10:31:55.562Z,12.94
2022-10-30T10:43:18.297Z,12.88
2022-10-30T10:46:34.601Z,13.06
2022-10-30T10:55:35.047Z,12.81
2022-10-30T11:14:39.088Z,13.13
2022-10-30T11:17:19.320Z,13.25
2022-10-30T11:19:53.526Z,13.44
2022-10-30T11:28:10.174Z,13.25
2022-10-30T11:30:37.651Z,13.25
2022-10-30T11:33:23.668Z,13.13
2022-10-30T11:35:51.191Z,13.19
2022-10-30T11:38:21.764Z,13.38
2022-10-30T11:40:53.488Z,13.56
2022-10-30T11:43:27.607Z,13.75
2022-10-30T11:45:56.105Z,13.75
2022-10-30T11:48:33.337Z,13.75
2022-10-30T11:51:03.541Z,13.56
2022-10-30T11:53:47.534Z,13.44
2022-10-30T11:56:22.633Z,13.44
2022-10-30T11:58:56.070Z,13.50
2022-10-30T12:01:27.900Z,13.63
2022-10-30T12:06:44.609Z,13.31
2022-10-30T12:09:22.515Z,13.44
2022-10-30T12:11:51.297Z,13.63
2022-10-30T12:23:25.809Z,13.56
2022-10-30T12:39:52.320Z,13.38
2022-10-30T12:45:37.611Z,13.31
2022-10-30T12:48:20.797Z,13.25
2022-10-30T12:51:48.772Z,13.31
2022-10-30T12:54:28.011Z,13.31
2022-10-30T12:57:35.525Z,13.25
2022-10-30T13:03:24.332Z,13.25
2022-10-30T13:05:59.925Z,13.13
2022-10-30T13:08:39.193Z,13.25
2022-10-30T13:11:26.833Z,13.44
2022-10-30T13:13:56.958Z,13.44
2022-10-30T13:16:33.193Z,13.50
2022-10-30T13:19:05.579Z,13.56
2022-10-30T13:22:14.339Z,13.63
2022-10-30T13:24:55.813Z,13.56
2022-10-30T13:28:00.322Z,13.63
2022-10-30T13:30:56.256Z,13.50
2022-10-30T13:33:48.119Z,13.44
2022-10-30T13:36:52.309Z,13.50
2022-10-30T13:39:46.687Z,13.44
2022-10-30T13:42:27.501Z,13.50
2022-10-30T13:45:07.757Z,13.38
2022-10-30T13:48:03.223Z,13.38
2022-10-30T13:51:08.978Z,13.31
2022-10-30T13:53:44.489Z,13.44
2022-10-30T13:56:17.232Z,13.50
2022-10-30T13:59:14.239Z,13.50
2022-10-30T14:01:56.289Z,13.44
2022-10-30T14:04:39.165Z,13.38
2022-10-30T14:07:47.970Z,13.56
2022-10-30T14:10:42.535Z,13.63
2022-10-30T14:13:22.372Z,13.63
2022-10-30T14:16:00.461Z,13.56
2022-10-30T15:52:54.809Z,12.19
2022-10-30T16:35:07.134Z,11.81
2022-10-30T16:43:40.917Z,11.81
2022-10-30T16:46:18.470Z,11.81
2022-10-30T16:48:52.077Z,12.00
2022-10-30T16:54:02.466Z,12.00
2022-10-30T16:56:34.886Z,12.06
2022-10-30T16:59:47.821Z,12.06
2022-10-30T17:02:23.733Z,11.94
2022-10-30T17:05:06.063Z,11.94
2022-10-30T17:07:36.534Z,11.94
2022-10-30T17:10:05.019Z,12.06
2022-10-30T17:12:32.639Z,12.06
2022-10-30T17:15:18.747Z,12.06
2022-10-30T17:18:21.293Z,12.00
2022-10-30T17:21:16.269Z,11.81
2022-10-30T17:23:53.104Z,11.94
2022-10-30T17:26:20.850Z,11.88
2022-10-30T17:28:48.884Z,11.81
2022-10-30T17:31:27.126Z,11.81
2022-10-30T17:34:19.452Z,12.00
2022-10-30T17:36:50.822Z,11.94
2022-10-30T17:39:19.573Z,12.00
2022-10-30T17:41:47.545Z,12.00
2022-10-30T17:44:24.499Z,11.88
2022-10-30T17:46:57.563Z,11.94
2022-10-30T17:49:33.452Z,11.75
2022-10-30T17:52:04.931Z,11.94
2022-10-30T17:54:32.662Z,12.00
2022-10-30T17:57:03.875Z,11.88
2022-10-30T17:59:33.555Z,11.88
2022-10-30T18:02:04.503Z,11.88
2022-10-30T18:04:32.216Z,11.75
2022-10-30T18:06:59.607Z,11.75
2022-10-30T18:09:31.735Z,11.88
2022-10-30T18:12:02.813Z,11.81
2022-10-30T18:14:34.682Z,11.81
2022-10-30T18:17:02.729Z,11.81
2022-10-30T18:19:30.321Z,11.81
2022-10-30T18:21:58.440Z,11.88
2022-10-30T18:24:26.570Z,11.81
2022-10-30T18:26:54.958Z,11.94
2022-10-30T18:29:23.508Z,11.81
2022-10-30T18:31:50.863Z,11.81
2022-10-30T18:34:21.723Z,11.69
2022-10-30T18:36:49.887Z,11.69
2022-10-30T18:39:17.243Z,11.75
2022-10-30T18:41:46.979Z,11.69
2022-10-30T18:44:20.839Z,11.69
2022-10-30T18:46:49.112Z,11.75
2022-10-30T18:49:19.660Z,11.75
2022-10-30T18:51:47.752Z,11.75
2022-10-30T18:54:17.332Z,11.88
2022-10-30T18:56:45.668Z,11.88
2022-10-30T18:59:14.569Z,11.75
2022-10-30T19:01:45.601Z,11.81
2022-10-30T19:06:59.155Z,11.69
2022-10-30T19:12:05.930Z,11.75
2022-10-30T19:14:34.350Z,11.75
2022-10-30T19:20:05.742Z,11.81
2022-10-30T19:22:33.429Z,11.69
2022-10-30T19:27:51.870Z,11.69
2022-10-30T19:30:20.776Z,11.44
2022-10-30T19:32:49.165Z,11.56
2022-10-30T19:35:18.570Z,11.44
2022-10-30T19:37:46.363Z,11.56
2022-10-30T19:40:30.206Z,11.56
2022-10-30T19:42:58.476Z,11.50
2022-10-30T19:45:31.272Z,11.50
2022-10-30T19:48:02.290Z,11.56
2022-10-30T19:50:39.692Z,11.44
2022-10-30T19:53:08.712Z,11.63
2022-10-30T19:55:38.701Z,11.69
2022-10-30T19:58:10.575Z,11.63
2022-10-30T20:00:41.020Z,11.69
2022-10-30T20:03:10.060Z,11.56
2022-10-30T20:05:42.138Z,11.56
2022-10-30T20:08:14.157Z,11.63
2022-10-30T20:10:50.067Z,11.44
2022-10-30T20:13:18.950Z,11.56
2022-10-30T20:15:49.455Z,11.63
2022-10-30T20:18:20.429Z,11.56
2022-10-30T20:20:56.077Z,11.56
2022-10-30T20:23:25.064Z,11.56
2022-10-30T20:26:01.949Z,11.63
2022-10-30T20:28:39.925Z,11.56
2022-10-30T20:31:11.343Z,11.69
2022-10-30T20:33:39.079Z,11.44
2022-10-30T20:36:06.996Z,11.56
2022-10-30T20:38:35.323Z,11.56
2022-10-30T20:41:05.522Z,11.50
2022-10-30T20:43:39.884Z,11.50
2022-10-30T20:46:12.618Z,11.44
2022-10-30T20:48:45.722Z,11.44
2022-10-30T20:51:14.510Z,11.56
2022-10-30T20:53:44.527Z,11.31
2022-10-30T20:56:13.613Z,11.31
2022-10-30T20:58:42.438Z,11.44
2022-10-30T21:01:13.935Z,11.31
2022-10-30T21:03:44.777Z,11.38
2022-10-30T21:06:13.465Z,11.44
2022-10-30T21:08:42.680Z,11.38
2022-10-30T21:11:10.352Z,11.19
2022-10-30T21:13:43.507Z,11.38
2022-10-30T21:16:11.367Z,11.25
2022-10-30T21:18:42.204Z,11.13
2022-10-30T21:21:13.873Z,11.19
2022-10-30T21:23:41.250Z,11.38
2022-10-30T21:26:13.072Z,11.44
2022-10-30T21:28:43.303Z,11.38
2022-10-30T21:31:14.178Z,11.38
2022-10-30T21:33:41.877Z,11.31
2022-10-30T21:36:19.989Z,11.13
2022-10-30T21:38:50.212Z,11.13
2022-10-30T21:41:21.345Z,11.25
2022-10-30T21:43:58.918Z,11.44
2022-10-30T21:46:31.955Z,11.44
2022-10-30T21:49:06.770Z,11.44
2022-10-30T21:51:34.692Z,11.25
2022-10-30T21:54:02.268Z,11.13
2022-10-30T21:56:31.159Z,11.31
2022-10-30T22:05:51.297Z,11.25
2022-10-30T22:08:20.007Z,11.25
2022-10-30T22:10:47.618Z,11.44
2022-10-30T22:13:15.140Z,11.50
2022-10-30T22:15:42.570Z,11.38
2022-10-30T22:18:11.935Z,11.38
2022-10-30T22:20:40.666Z,11.31
2022-10-30T22:23:08.957Z,11.19
2022-10-30T22:25:47.200Z,11.19
2022-10-30T22:30:45.715Z,11.13
2022-10-30T22:33:13.375Z,11.25
2022-10-30T22:35:41.096Z,11.31
2022-10-30T22:38:08.767Z,11.31
2022-10-30T22:40:36.811Z,11.25
2022-10-30T22:43:06.291Z,11.19
2022-10-30T22:45:33.924Z,11.13
2022-10-30T22:48:01.759Z,11.06
2022-10-30T22:50:29.592Z,10.94
2022-10-30T22:53:00.207Z,11.06
2022-10-30T22:55:29.513Z,11.25
2022-10-30T22:57:59.942Z,11.19
2022-10-30T23:00:29.242Z,11.31
2022-10-30T23:02:57.365Z,11.25
2022-10-30T23:05:25.262Z,11.25
2022-10-30T23:07:52.881Z,11.25
2022-10-30T23:10:20.334Z,11.31
2022-10-30T23:12:47.798Z,11.25
2022-10-30T23:15:15.568Z,11.00
2022-10-30T23:17:42.991Z,11.00
2022-10-30T23:20:13.762Z,11.00
2022-10-30T23:22:41.197Z,11.19
2022-10-30T23:25:09.415Z,11.19
2022-10-30T23:27:40.050Z,11.13
2022-10-30T23:30:11.977Z,11.00
2022-10-30T23:32:40.834Z,11.06
2022-10-30T23:35:10.113Z,10.94
2022-10-30T23:37:38.267Z,11.06
2022-10-30T23:40:08.910Z,11.00
2022-10-30T23:42:37.101Z,11.00
2022-10-30T23:45:10.814Z,11.13
2022-10-30T23:47:42.558Z,11.06
2022-10-30T23:50:11.049Z,10.94
2022-10-30T23:52:39.129Z,10.94
2022-10-30T23:55:07.812Z,11.00
2022-10-30T23:57:36.687Z,11.06
